Check out our new PWSWeather beta!
PWSweather.com
Personal Weather Stations
Station Observations

SkegnessGB

Lat: 53.147585, Lon: 0.345774

Elevation: 18

Station Type: Fine Offset WH3080

http://www.skegnessweather.info/

High Low Average
Temperature 51.4°F10.8°C 47.5°F8.6°C 49.6°F9.8°C
Dew Point 46.8°F8.2°C 42.4°F5.8°C 44.5°F6.9°C
Winds 22.2 mph 35.7 kmh 2.8 mph 4.5 kmh 13.0 mph S20.9 kmh S
Wind Gusts 25.1 mph40.4 kmh 4.9 mph7.9 kmh 15.0 mph24.1 kmh
Humidity 88% 74% 83%
Pressure 29.55 in1000.7 mb 29.15 in987.1 mb -
Precipitation 0.07 in1.8 mm - -
Hour Temp Dew Point Humidity Winds Wind Gusts Pressure Precip Precip Rate Daily Precip Total
12:00 AM 47.7°F8.7°C 42.4°F5.8°C 82% 20.3 mph SSE32.7 kmh SSE 18.5 mph29.8 kmh 29.55 in1000.7 mb 0.00 in0.0 mm 0.00 in0.0 mm 0.00 in0.0 mm
12:10 AM 48.0°F8.9°C 42.8°F6.0°C 82% 21.0 mph S33.8 kmh S 19.2 mph30.9 kmh 29.54 in1000.3 mb 0.00 in0.0 mm 0.00 in0.0 mm 0.00 in0.0 mm
12:20 AM 47.7°F8.7°C 42.4°F5.8°C 82% 20.2 mph S32.5 kmh S 20.2 mph32.5 kmh 29.53 in1000.0 mb 0.00 in0.0 mm 0.00 in0.0 mm 0.00 in0.0 mm
12:30 AM 47.5°F8.6°C 42.6°F5.9°C 83% 18.4 mph SSE29.6 kmh SSE 17.5 mph28.2 kmh 29.52 in999.7 mb 0.00 in0.0 mm 0.00 in0.0 mm 0.00 in0.0 mm
12:40 AM 47.5°F8.6°C 42.9°F6.1°C 84% 18.3 mph S29.5 kmh S 16.7 mph26.9 kmh 29.52 in999.7 mb 0.00 in0.0 mm 0.00 in0.0 mm 0.00 in0.0 mm
12:50 AM 47.7°F8.7°C 43.1°F6.2°C 84% 17.4 mph S28.0 kmh S 17.5 mph28.2 kmh 29.52 in999.7 mb 0.00 in0.0 mm 0.00 in0.0 mm 0.00 in0.0 mm
01:00 AM 47.8°F8.8°C 43.2°F6.2°C 84% 18.1 mph S29.1 kmh S 19.2 mph30.9 kmh 29.52 in999.7 mb 0.00 in0.0 mm 0.00 in0.0 mm 0.00 in0.0 mm
01:10 AM 48.0°F8.9°C 43.4°F6.3°C 84% 20.4 mph S32.8 kmh S 20.9 mph33.6 kmh 29.52 in999.7 mb 0.00 in0.0 mm 0.00 in0.0 mm 0.00 in0.0 mm
01:20 AM 48.0°F8.9°C 43.4°F6.3°C 84% 20.0 mph S32.2 kmh S 18.5 mph29.8 kmh 29.52 in999.7 mb 0.00 in0.0 mm 0.00 in0.0 mm 0.00 in0.0 mm
01:30 AM 48.2°F9.0°C 43.6°F6.4°C 84% 19.2 mph SSE30.9 kmh SSE 20.2 mph32.5 kmh 29.52 in999.7 mb 0.00 in0.0 mm 0.00 in0.0 mm 0.00 in0.0 mm
01:40 AM 48.2°F9.0°C 43.3°F6.3°C 83% 15.9 mph S25.6 kmh S 14.3 mph23.0 kmh 29.52 in999.7 mb 0.00 in0.0 mm 0.00 in0.0 mm 0.00 in0.0 mm
01:50 AM 48.4°F9.1°C 43.5°F6.4°C 83% 16.7 mph S26.9 kmh S 19.2 mph30.9 kmh 29.51 in999.3 mb 0.00 in0.0 mm 0.00 in0.0 mm 0.00 in0.0 mm
02:00 AM 48.6°F9.2°C 43.6°F6.4°C 83% 18.6 mph S29.9 kmh S 20.9 mph33.6 kmh 29.51 in999.3 mb 0.00 in0.0 mm 0.00 in0.0 mm 0.00 in0.0 mm
02:10 AM 48.6°F9.2°C 43.6°F6.4°C 83% 17.0 mph SSE27.4 kmh SSE 15.0 mph24.1 kmh 29.50 in999.0 mb 0.00 in0.0 mm 0.00 in0.0 mm 0.00 in0.0 mm
02:20 AM 48.6°F9.2°C 43.6°F6.4°C 83% 17.2 mph SSE27.7 kmh SSE 17.5 mph28.2 kmh 29.51 in999.3 mb 0.00 in0.0 mm 0.00 in0.0 mm 0.00 in0.0 mm
02:30 AM 48.6°F9.2°C 43.6°F6.4°C 83% 17.8 mph SE28.6 kmh SE 19.2 mph30.9 kmh 29.51 in999.3 mb 0.00 in0.0 mm 0.00 in0.0 mm 0.00 in0.0 mm
02:40 AM 48.4°F9.1°C 43.5°F6.4°C 83% 15.9 mph S25.6 kmh S 16.0 mph25.7 kmh 29.51 in999.3 mb 0.00 in0.0 mm 0.00 in0.0 mm 0.00 in0.0 mm
02:50 AM 48.2°F9.0°C 43.3°F6.3°C 83% 15.1 mph SSE24.3 kmh SSE 16.0 mph25.7 kmh 29.51 in999.3 mb 0.00 in0.0 mm 0.00 in0.0 mm 0.00 in0.0 mm
03:00 AM 48.2°F9.0°C 43.3°F6.3°C 83% 14.6 mph S23.5 kmh S 16.7 mph26.9 kmh 29.50 in999.0 mb 0.00 in0.0 mm 0.00 in0.0 mm 0.00 in0.0 mm
03:10 AM 48.2°F9.0°C 43.6°F6.4°C 84% 15.7 mph S25.3 kmh S 16.0 mph25.7 kmh 29.51 in999.3 mb 0.00 in0.0 mm 0.00 in0.0 mm 0.00 in0.0 mm
03:20 AM 48.2°F9.0°C 43.6°F6.4°C 84% 13.8 mph S22.2 kmh S 15.0 mph24.1 kmh 29.51 in999.3 mb 0.01 in0.3 mm 0.06 in1.5 mm 0.01 in0.3 mm
03:30 AM 48.2°F9.0°C 43.9°F6.6°C 85% 14.5 mph SSE23.3 kmh SSE 15.0 mph24.1 kmh 29.50 in999.0 mb 0.02 in0.5 mm 0.06 in1.5 mm 0.02 in0.5 mm
03:40 AM 48.2°F9.0°C 43.9°F6.6°C 85% 12.9 mph SSE20.8 kmh SSE 14.3 mph23.0 kmh 29.50 in999.0 mb 0.02 in0.5 mm 0.00 in0.0 mm 0.02 in0.5 mm
03:50 AM 48.2°F9.0°C 44.2°F6.8°C 86% 14.1 mph SE22.7 kmh SE 13.3 mph21.4 kmh 29.50 in999.0 mb 0.02 in0.5 mm 0.00 in0.0 mm 0.02 in0.5 mm
04:00 AM 48.2°F9.0°C 44.2°F6.8°C 86% 14.3 mph SSE23.0 kmh SSE 13.3 mph21.4 kmh 29.50 in999.0 mb 0.02 in0.5 mm 0.00 in0.0 mm 0.02 in0.5 mm
04:10 AM 48.2°F9.0°C 44.2°F6.8°C 86% 14.1 mph SSE22.7 kmh SSE 15.0 mph24.1 kmh 29.49 in998.6 mb 0.04 in1.0 mm 0.12 in3.0 mm 0.04 in1.0 mm
04:20 AM 48.2°F9.0°C 44.5°F6.9°C 87% 14.5 mph SE23.3 kmh SE 18.5 mph29.8 kmh 29.48 in998.3 mb 0.02 in0.5 mm 0.00 in0.0 mm 0.04 in1.0 mm
04:30 AM 48.2°F9.0°C 44.5°F6.9°C 87% 16.7 mph SSE26.9 kmh SSE 17.5 mph28.2 kmh 29.47 in998.0 mb 0.01 in0.3 mm 0.00 in0.0 mm 0.04 in1.0 mm
04:40 AM 48.2°F9.0°C 44.5°F6.9°C 87% 15.3 mph E24.6 kmh E 14.3 mph23.0 kmh 29.47 in998.0 mb 0.01 in0.3 mm 0.00 in0.0 mm 0.04 in1.0 mm
04:50 AM 48.4°F9.1°C 45.0°F7.2°C 88% 15.6 mph S25.1 kmh S 18.5 mph29.8 kmh 29.47 in998.0 mb 0.02 in0.5 mm 0.06 in1.5 mm 0.05 in1.3 mm
05:00 AM 48.6°F9.2°C 45.2°F7.3°C 88% 16.9 mph SE27.2 kmh SE 16.0 mph25.7 kmh 29.46 in997.6 mb 0.02 in0.5 mm 0.00 in0.0 mm 0.05 in1.3 mm
05:10 AM 48.6°F9.2°C 45.2°F7.3°C 88% 22.2 mph S35.7 kmh S 21.7 mph34.9 kmh 29.48 in998.3 mb 0.01 in0.3 mm 0.00 in0.0 mm 0.05 in1.3 mm
05:20 AM 48.7°F9.3°C 45.3°F7.4°C 88% 15.4 mph SSE24.8 kmh SSE 15.0 mph24.1 kmh 29.46 in997.6 mb 0.01 in0.3 mm 0.00 in0.0 mm 0.05 in1.3 mm
05:30 AM 48.7°F9.3°C 45.3°F7.4°C 88% 16.5 mph S26.6 kmh S 17.5 mph28.2 kmh 29.46 in997.6 mb 0.01 in0.3 mm 0.00 in0.0 mm 0.05 in1.3 mm
05:40 AM 48.7°F9.3°C 45.3°F7.4°C 88% 15.4 mph S24.8 kmh S 14.3 mph23.0 kmh 29.46 in997.6 mb 0.01 in0.3 mm 0.00 in0.0 mm 0.05 in1.3 mm
05:50 AM 48.7°F9.3°C 45.3°F7.4°C 88% 16.7 mph S26.9 kmh S 16.7 mph26.9 kmh 29.47 in998.0 mb 0.00 in0.0 mm 0.00 in0.0 mm 0.05 in1.3 mm
06:00 AM 48.6°F9.2°C 45.2°F7.3°C 88% 13.6 mph S21.9 kmh S 13.3 mph21.4 kmh 29.47 in998.0 mb 0.00 in0.0 mm 0.00 in0.0 mm 0.05 in1.3 mm
06:10 AM 48.6°F9.2°C 45.2°F7.3°C 88% 13.8 mph SSE22.2 kmh SSE 15.0 mph24.1 kmh 29.47 in998.0 mb 0.00 in0.0 mm 0.00 in0.0 mm 0.05 in1.3 mm
06:20 AM 48.7°F9.3°C 45.3°F7.4°C 88% 15.3 mph S24.6 kmh S 20.2 mph32.5 kmh 29.47 in998.0 mb 0.00 in0.0 mm 0.00 in0.0 mm 0.05 in1.3 mm
06:30 AM 48.7°F9.3°C 45.0°F7.2°C 87% 15.2 mph S24.5 kmh S 18.5 mph29.8 kmh 29.47 in998.0 mb 0.00 in0.0 mm 0.00 in0.0 mm 0.05 in1.3 mm
06:40 AM 48.6°F9.2°C 44.9°F7.2°C 87% 14.1 mph S22.7 kmh S 13.3 mph21.4 kmh 29.46 in997.6 mb 0.00 in0.0 mm 0.00 in0.0 mm 0.05 in1.3 mm
06:50 AM 48.6°F9.2°C 44.9°F7.2°C 87% 12.5 mph S20.1 kmh S 13.3 mph21.4 kmh 29.46 in997.6 mb 0.00 in0.0 mm 0.00 in0.0 mm 0.05 in1.3 mm
07:00 AM 48.7°F9.3°C 45.0°F7.2°C 87% 15.1 mph S24.3 kmh S 16.7 mph26.9 kmh 29.46 in997.6 mb 0.00 in0.0 mm 0.00 in0.0 mm 0.05 in1.3 mm
07:10 AM 48.7°F9.3°C 45.0°F7.2°C 87% 11.7 mph SE18.8 kmh SE 13.3 mph21.4 kmh 29.46 in997.6 mb 0.00 in0.0 mm 0.00 in0.0 mm 0.05 in1.3 mm
07:20 AM 48.9°F9.4°C 45.2°F7.3°C 87% 15.6 mph SSE25.1 kmh SSE 14.3 mph23.0 kmh 29.46 in997.6 mb 0.00 in0.0 mm 0.00 in0.0 mm 0.05 in1.3 mm
07:30 AM 48.7°F9.3°C 45.0°F7.2°C 87% 14.9 mph S24.0 kmh S 13.3 mph21.4 kmh 29.46 in997.6 mb 0.00 in0.0 mm 0.00 in0.0 mm 0.05 in1.3 mm
07:40 AM 48.7°F9.3°C 45.0°F7.2°C 87% 13.8 mph SE22.2 kmh SE 16.7 mph26.9 kmh 29.46 in997.6 mb 0.00 in0.0 mm 0.00 in0.0 mm 0.05 in1.3 mm
07:50 AM 48.9°F9.4°C 45.2°F7.3°C 87% 15.5 mph SSE24.9 kmh SSE 14.3 mph23.0 kmh 29.46 in997.6 mb 0.00 in0.0 mm 0.00 in0.0 mm 0.05 in1.3 mm
08:00 AM 48.9°F9.4°C 44.9°F7.2°C 86% 15.8 mph SSW25.4 kmh SSW 16.7 mph26.9 kmh 29.46 in997.6 mb 0.00 in0.0 mm 0.00 in0.0 mm 0.05 in1.3 mm
08:10 AM 48.9°F9.4°C 44.9°F7.2°C 86% 14.4 mph S23.2 kmh S 11.8 mph19.0 kmh 29.46 in997.6 mb 0.00 in0.0 mm 0.00 in0.0 mm 0.05 in1.3 mm
08:20 AM 48.9°F9.4°C 44.9°F7.2°C 86% 16.1 mph SSE25.9 kmh SSE 15.0 mph24.1 kmh 29.46 in997.6 mb 0.00 in0.0 mm 0.00 in0.0 mm 0.05 in1.3 mm
08:30 AM 49.1°F9.5°C 45.1°F7.3°C 86% 15.7 mph SSE25.3 kmh SSE 15.0 mph24.1 kmh 29.46 in997.6 mb 0.00 in0.0 mm 0.00 in0.0 mm 0.05 in1.3 mm
08:40 AM 49.1°F9.5°C 45.1°F7.3°C 86% 16.2 mph SSE26.1 kmh SSE 14.3 mph23.0 kmh 29.46 in997.6 mb 0.00 in0.0 mm 0.00 in0.0 mm 0.05 in1.3 mm
08:50 AM 49.3°F9.6°C 45.0°F7.2°C 85% 15.3 mph SE24.6 kmh SE 15.0 mph24.1 kmh 29.46 in997.6 mb 0.00 in0.0 mm 0.00 in0.0 mm 0.05 in1.3 mm
09:00 AM 49.5°F9.7°C 45.1°F7.3°C 85% 16.8 mph SSE27.0 kmh SSE 16.0 mph25.7 kmh 29.46 in997.6 mb 0.00 in0.0 mm 0.00 in0.0 mm 0.05 in1.3 mm
09:10 AM 49.5°F9.7°C 45.1°F7.3°C 85% 15.6 mph NW25.1 kmh NW 14.3 mph23.0 kmh 29.46 in997.6 mb 0.00 in0.0 mm 0.00 in0.0 mm 0.05 in1.3 mm
09:20 AM 49.5°F9.7°C 45.1°F7.3°C 85% 15.6 mph S25.1 kmh S 16.7 mph26.9 kmh 29.46 in997.6 mb 0.00 in0.0 mm 0.00 in0.0 mm 0.05 in1.3 mm
09:30 AM 49.5°F9.7°C 44.8°F7.1°C 84% 17.1 mph S27.5 kmh S 17.5 mph28.2 kmh 29.46 in997.6 mb 0.00 in0.0 mm 0.00 in0.0 mm 0.05 in1.3 mm
09:40 AM 49.5°F9.7°C 44.8°F7.1°C 84% 16.3 mph S26.2 kmh S 15.0 mph24.1 kmh 29.45 in997.3 mb 0.00 in0.0 mm 0.00 in0.0 mm 0.05 in1.3 mm
09:50 AM 49.8°F9.9°C 45.2°F7.3°C 84% 19.3 mph SSE31.1 kmh SSE 19.2 mph30.9 kmh 29.46 in997.6 mb 0.00 in0.0 mm 0.00 in0.0 mm 0.05 in1.3 mm
10:00 AM 50.0°F10.0°C 45.4°F7.4°C 84% 18.0 mph S29.0 kmh S 19.2 mph30.9 kmh 29.46 in997.6 mb 0.00 in0.0 mm 0.00 in0.0 mm 0.05 in1.3 mm
10:10 AM 50.2°F10.1°C 45.5°F7.5°C 84% 19.4 mph S31.2 kmh S 16.0 mph25.7 kmh 29.46 in997.6 mb 0.00 in0.0 mm 0.00 in0.0 mm 0.05 in1.3 mm
10:20 AM 50.0°F10.0°C 45.0°F7.2°C 83% 17.0 mph SSE27.4 kmh SSE 16.0 mph25.7 kmh 29.46 in997.6 mb 0.00 in0.0 mm 0.00 in0.0 mm 0.05 in1.3 mm
10:30 AM 49.8°F9.9°C 44.9°F7.2°C 83% 15.0 mph S24.1 kmh S 14.3 mph23.0 kmh 29.46 in997.6 mb 0.00 in0.0 mm 0.00 in0.0 mm 0.05 in1.3 mm
10:40 AM 49.8°F9.9°C 44.9°F7.2°C 83% 14.0 mph S22.5 kmh S 14.3 mph23.0 kmh 29.46 in997.6 mb 0.00 in0.0 mm 0.00 in0.0 mm 0.05 in1.3 mm
10:50 AM 50.0°F10.0°C 45.4°F7.4°C 84% 16.1 mph SSE25.9 kmh SSE 15.0 mph24.1 kmh 29.47 in998.0 mb 0.00 in0.0 mm 0.00 in0.0 mm 0.05 in1.3 mm
11:00 AM 50.4°F10.2°C 45.7°F7.6°C 84% 14.4 mph S23.2 kmh S 15.0 mph24.1 kmh 29.46 in997.6 mb 0.00 in0.0 mm 0.00 in0.0 mm 0.05 in1.3 mm
11:10 AM 50.7°F10.4°C 46.1°F7.8°C 84% 14.0 mph S22.5 kmh S 13.3 mph21.4 kmh 29.46 in997.6 mb 0.00 in0.0 mm 0.00 in0.0 mm 0.05 in1.3 mm
11:20 AM 50.9°F10.5°C 46.2°F7.9°C 84% 14.7 mph S23.7 kmh S 13.3 mph21.4 kmh 29.45 in997.3 mb 0.00 in0.0 mm 0.00 in0.0 mm 0.05 in1.3 mm
11:30 AM 50.9°F10.5°C 46.2°F7.9°C 84% 15.5 mph SE24.9 kmh SE 14.3 mph23.0 kmh 29.45 in997.3 mb 0.00 in0.0 mm 0.00 in0.0 mm 0.05 in1.3 mm
11:40 AM 51.3°F10.7°C 46.6°F8.1°C 84% 15.0 mph SSE24.1 kmh SSE 15.0 mph24.1 kmh 29.44 in997.0 mb 0.00 in0.0 mm 0.00 in0.0 mm 0.05 in1.3 mm
11:50 AM 51.1°F10.6°C 46.4°F8.0°C 84% 12.7 mph S20.4 kmh S 13.3 mph21.4 kmh 29.44 in997.0 mb 0.00 in0.0 mm 0.00 in0.0 mm 0.05 in1.3 mm
12:00 PM 51.4°F10.8°C 46.8°F8.2°C 84% 8.7 mph SE14.0 kmh SE 11.8 mph19.0 kmh 29.44 in997.0 mb 0.00 in0.0 mm 0.00 in0.0 mm 0.05 in1.3 mm
12:10 PM 51.4°F10.8°C 46.4°F8.0°C 83% 9.4 mph SE15.1 kmh SE 10.8 mph17.4 kmh 29.44 in997.0 mb 0.00 in0.0 mm 0.00 in0.0 mm 0.05 in1.3 mm
12:20 PM 51.1°F10.6°C 46.1°F7.8°C 83% 7.6 mph S12.2 kmh S 9.1 mph14.6 kmh 29.43 in996.6 mb 0.00 in0.0 mm 0.00 in0.0 mm 0.05 in1.3 mm
12:30 PM 51.1°F10.6°C 46.1°F7.8°C 83% 9.6 mph S15.4 kmh S 10.1 mph16.3 kmh 29.43 in996.6 mb 0.00 in0.0 mm 0.00 in0.0 mm 0.05 in1.3 mm
12:40 PM 51.1°F10.6°C 46.1°F7.8°C 83% 8.5 mph S13.7 kmh S 10.8 mph17.4 kmh 29.42 in996.3 mb 0.00 in0.0 mm 0.00 in0.0 mm 0.05 in1.3 mm
12:50 PM 51.1°F10.6°C 46.1°F7.8°C 83% 7.6 mph SSE12.2 kmh SSE 9.1 mph14.6 kmh 29.42 in996.3 mb 0.00 in0.0 mm 0.00 in0.0 mm 0.05 in1.3 mm
01:00 PM 51.1°F10.6°C 46.1°F7.8°C 83% 7.5 mph S12.1 kmh S 8.4 mph13.5 kmh 29.41 in995.9 mb 0.00 in0.0 mm 0.00 in0.0 mm 0.05 in1.3 mm
01:10 PM 51.3°F10.7°C 46.0°F7.8°C 82% 5.8 mph NW9.3 kmh NW 5.9 mph9.5 kmh 29.40 in995.6 mb 0.00 in0.0 mm 0.00 in0.0 mm 0.05 in1.3 mm
01:20 PM 51.1°F10.6°C 45.8°F7.7°C 82% 3.2 mph NE5.1 kmh NE 5.9 mph9.5 kmh 29.39 in995.3 mb 0.00 in0.0 mm 0.00 in0.0 mm 0.05 in1.3 mm
01:30 PM 50.9°F10.5°C 45.6°F7.6°C 82% 3.3 mph S5.3 kmh S 6.6 mph10.6 kmh 29.38 in994.9 mb 0.00 in0.0 mm 0.00 in0.0 mm 0.05 in1.3 mm
01:40 PM 50.5°F10.3°C 45.2°F7.3°C 82% 2.8 mph S4.5 kmh S 4.9 mph7.9 kmh 29.38 in994.9 mb 0.00 in0.0 mm 0.00 in0.0 mm 0.05 in1.3 mm
01:50 PM 50.2°F10.1°C 44.9°F7.2°C 82% 4.5 mph S7.2 kmh S 6.6 mph10.6 kmh 29.37 in994.6 mb 0.00 in0.0 mm 0.00 in0.0 mm 0.05 in1.3 mm
02:00 PM 50.4°F10.2°C 45.1°F7.3°C 82% 6.3 mph S10.1 kmh S 8.4 mph13.5 kmh 29.36 in994.2 mb 0.00 in0.0 mm 0.00 in0.0 mm 0.05 in1.3 mm
02:10 PM 50.4°F10.2°C 45.1°F7.3°C 82% 5.6 mph NW9.0 kmh NW 9.1 mph14.6 kmh 29.35 in993.9 mb 0.00 in0.0 mm 0.00 in0.0 mm 0.05 in1.3 mm
02:20 PM 50.4°F10.2°C 45.1°F7.3°C 82% 6.5 mph S10.5 kmh S 12.5 mph20.1 kmh 29.34 in993.6 mb 0.00 in0.0 mm 0.00 in0.0 mm 0.05 in1.3 mm
02:30 PM 50.2°F10.1°C 44.9°F7.2°C 82% 7.6 mph S12.2 kmh S 11.8 mph19.0 kmh 29.34 in993.6 mb 0.00 in0.0 mm 0.00 in0.0 mm 0.05 in1.3 mm
02:40 PM 50.0°F10.0°C 44.7°F7.1°C 82% 8.7 mph SSE14.0 kmh SSE 12.5 mph20.1 kmh 29.34 in993.6 mb 0.00 in0.0 mm 0.00 in0.0 mm 0.05 in1.3 mm
02:50 PM 50.0°F10.0°C 44.7°F7.1°C 82% 7.5 mph S12.1 kmh S 12.5 mph20.1 kmh 29.33 in993.2 mb 0.00 in0.0 mm 0.00 in0.0 mm 0.05 in1.3 mm
03:00 PM 49.8°F9.9°C 44.5°F6.9°C 82% 7.7 mph SSE12.4 kmh SSE 10.1 mph16.3 kmh 29.34 in993.6 mb 0.00 in0.0 mm 0.00 in0.0 mm 0.05 in1.3 mm
03:10 PM 50.0°F10.0°C 44.7°F7.1°C 82% 9.0 mph S14.5 kmh S 9.1 mph14.6 kmh 29.33 in993.2 mb 0.00 in0.0 mm 0.00 in0.0 mm 0.05 in1.3 mm
03:20 PM 49.6°F9.8°C 44.4°F6.9°C 82% 5.2 mph S8.4 kmh S 7.6 mph12.2 kmh 29.32 in992.9 mb 0.01 in0.3 mm 0.06 in1.5 mm 0.06 in1.5 mm
03:30 PM 49.3°F9.6°C 44.0°F6.7°C 82% 5.8 mph S9.3 kmh S 10.1 mph16.3 kmh 29.32 in992.9 mb 0.01 in0.3 mm 0.00 in0.0 mm 0.06 in1.5 mm
03:40 PM 49.1°F9.5°C 43.8°F6.6°C 82% 5.6 mph S9.0 kmh S 10.1 mph16.3 kmh 29.32 in992.9 mb 0.01 in0.3 mm 0.00 in0.0 mm 0.06 in1.5 mm
03:50 PM 48.7°F9.3°C 43.5°F6.4°C 82% 6.7 mph E10.8 kmh E 10.1 mph16.3 kmh 29.31 in992.6 mb 0.02 in0.5 mm 0.06 in1.5 mm 0.07 in1.8 mm
04:00 PM 48.7°F9.3°C 43.8°F6.6°C 83% 6.9 mph S11.1 kmh S 7.6 mph12.2 kmh 29.29 in991.9 mb 0.02 in0.5 mm 0.00 in0.0 mm 0.07 in1.8 mm
04:10 PM 48.6°F9.2°C 43.6°F6.4°C 83% 6.0 mph SSE9.7 kmh SSE 10.1 mph16.3 kmh 29.29 in991.9 mb 0.02 in0.5 mm 0.00 in0.0 mm 0.07 in1.8 mm
04:20 PM 48.7°F9.3°C 43.8°F6.6°C 83% 6.6 mph SE10.6 kmh SE 11.8 mph19.0 kmh 29.29 in991.9 mb 0.01 in0.3 mm 0.00 in0.0 mm 0.07 in1.8 mm
04:30 PM 48.9°F9.4°C 44.3°F6.8°C 84% 7.3 mph S11.7 kmh S 9.1 mph14.6 kmh 29.29 in991.9 mb 0.01 in0.3 mm 0.00 in0.0 mm 0.07 in1.8 mm
04:40 PM 48.9°F9.4°C 44.3°F6.8°C 84% 8.0 mph S12.9 kmh S 10.8 mph17.4 kmh 29.28 in991.5 mb 0.01 in0.3 mm 0.00 in0.0 mm 0.07 in1.8 mm
04:50 PM 48.9°F9.4°C 44.3°F6.8°C 84% 7.6 mph ESE12.2 kmh ESE 11.8 mph19.0 kmh 29.28 in991.5 mb 0.00 in0.0 mm 0.00 in0.0 mm 0.07 in1.8 mm
05:00 PM 49.3°F9.6°C 44.6°F7.0°C 84% 9.1 mph S14.6 kmh S 14.3 mph23.0 kmh 29.27 in991.2 mb 0.00 in0.0 mm 0.00 in0.0 mm 0.07 in1.8 mm
05:10 PM 49.5°F9.7°C 44.8°F7.1°C 84% 9.0 mph SSE14.5 kmh SSE 11.8 mph19.0 kmh 29.27 in991.2 mb 0.00 in0.0 mm 0.00 in0.0 mm 0.07 in1.8 mm
05:20 PM 49.8°F9.9°C 45.2°F7.3°C 84% 10.7 mph SSE17.2 kmh SSE 15.0 mph24.1 kmh 29.26 in990.9 mb 0.00 in0.0 mm 0.00 in0.0 mm 0.07 in1.8 mm
05:30 PM 50.0°F10.0°C 45.0°F7.2°C 83% 11.0 mph S17.7 kmh S 16.0 mph25.7 kmh 29.26 in990.9 mb 0.00 in0.0 mm 0.00 in0.0 mm 0.07 in1.8 mm
05:40 PM 50.0°F10.0°C 44.7°F7.1°C 82% 10.9 mph SSE17.5 kmh SSE 13.3 mph21.4 kmh 29.25 in990.5 mb 0.00 in0.0 mm 0.00 in0.0 mm 0.07 in1.8 mm
05:50 PM 50.0°F10.0°C 44.7°F7.1°C 82% 11.5 mph SSE18.5 kmh SSE 11.8 mph19.0 kmh 29.25 in990.5 mb 0.00 in0.0 mm 0.00 in0.0 mm 0.07 in1.8 mm
06:00 PM 50.0°F10.0°C 44.7°F7.1°C 82% 11.3 mph S18.2 kmh S 13.3 mph21.4 kmh 29.23 in989.8 mb 0.00 in0.0 mm 0.00 in0.0 mm 0.07 in1.8 mm
06:10 PM 50.0°F10.0°C 44.4°F6.9°C 81% 9.6 mph SSE15.4 kmh SSE 12.5 mph20.1 kmh 29.24 in990.2 mb 0.00 in0.0 mm 0.00 in0.0 mm 0.07 in1.8 mm
06:20 PM 50.2°F10.1°C 44.6°F7.0°C 81% 11.9 mph SE19.2 kmh SE 15.0 mph24.1 kmh 29.24 in990.2 mb 0.00 in0.0 mm 0.00 in0.0 mm 0.07 in1.8 mm
06:30 PM 50.2°F10.1°C 44.6°F7.0°C 81% 12.6 mph SE20.3 kmh SE 13.3 mph21.4 kmh 29.24 in990.2 mb 0.00 in0.0 mm 0.00 in0.0 mm 0.07 in1.8 mm
06:40 PM 50.4°F10.2°C 44.7°F7.1°C 81% 14.6 mph ESE23.5 kmh ESE 16.0 mph25.7 kmh 29.24 in990.2 mb 0.00 in0.0 mm 0.00 in0.0 mm 0.07 in1.8 mm
06:50 PM 50.7°F10.4°C 44.8°F7.1°C 80% 16.5 mph S26.6 kmh S 18.5 mph29.8 kmh 29.22 in989.5 mb 0.00 in0.0 mm 0.00 in0.0 mm 0.07 in1.8 mm
07:00 PM 50.9°F10.5°C 44.9°F7.2°C 80% 17.6 mph S28.3 kmh S 19.2 mph30.9 kmh 29.21 in989.2 mb 0.00 in0.0 mm 0.00 in0.0 mm 0.07 in1.8 mm
07:10 PM 50.5°F10.3°C 44.3°F6.8°C 79% 14.8 mph S23.8 kmh S 14.3 mph23.0 kmh 29.22 in989.5 mb 0.00 in0.0 mm 0.00 in0.0 mm 0.07 in1.8 mm
07:20 PM 50.4°F10.2°C 44.1°F6.7°C 79% 14.4 mph S23.2 kmh S 17.5 mph28.2 kmh 29.22 in989.5 mb 0.00 in0.0 mm 0.00 in0.0 mm 0.07 in1.8 mm
07:30 PM 50.2°F10.1°C 43.9°F6.6°C 79% 13.4 mph SE21.6 kmh SE 14.3 mph23.0 kmh 29.22 in989.5 mb 0.00 in0.0 mm 0.00 in0.0 mm 0.07 in1.8 mm
07:40 PM 50.0°F10.0°C 43.7°F6.5°C 79% 13.2 mph SE21.2 kmh SE 16.7 mph26.9 kmh 29.21 in989.2 mb 0.00 in0.0 mm 0.00 in0.0 mm 0.07 in1.8 mm
07:50 PM 50.0°F10.0°C 43.7°F6.5°C 79% 11.7 mph S18.8 kmh S 12.5 mph20.1 kmh 29.21 in989.2 mb 0.00 in0.0 mm 0.00 in0.0 mm 0.07 in1.8 mm
08:00 PM 50.4°F10.2°C 44.1°F6.7°C 79% 11.7 mph SE18.8 kmh SE 15.0 mph24.1 kmh 29.20 in988.8 mb 0.00 in0.0 mm 0.00 in0.0 mm 0.07 in1.8 mm
08:10 PM 50.4°F10.2°C 44.1°F6.7°C 79% 9.1 mph ESE14.6 kmh ESE 12.5 mph20.1 kmh 29.19 in988.5 mb 0.00 in0.0 mm 0.00 in0.0 mm 0.07 in1.8 mm
08:20 PM 50.0°F10.0°C 43.4°F6.3°C 78% 9.4 mph S15.1 kmh S 13.3 mph21.4 kmh 29.19 in988.5 mb 0.00 in0.0 mm 0.00 in0.0 mm 0.07 in1.8 mm
08:30 PM 50.0°F10.0°C 43.7°F6.5°C 79% 8.3 mph S13.4 kmh S 12.5 mph20.1 kmh 29.19 in988.5 mb 0.00 in0.0 mm 0.00 in0.0 mm 0.07 in1.8 mm
08:40 PM 50.0°F10.0°C 44.1°F6.7°C 80% 8.2 mph S13.2 kmh S 12.5 mph20.1 kmh 29.18 in988.1 mb 0.00 in0.0 mm 0.00 in0.0 mm 0.07 in1.8 mm
08:50 PM 50.2°F10.1°C 44.2°F6.8°C 80% 11.2 mph SSE18.0 kmh SSE 12.5 mph20.1 kmh 29.18 in988.1 mb 0.00 in0.0 mm 0.00 in0.0 mm 0.07 in1.8 mm
09:00 PM 50.2°F10.1°C 43.9°F6.6°C 79% 10.2 mph S16.4 kmh S 13.3 mph21.4 kmh 29.17 in987.8 mb 0.00 in0.0 mm 0.00 in0.0 mm 0.07 in1.8 mm
09:10 PM 50.4°F10.2°C 44.1°F6.7°C 79% 13.0 mph SE20.9 kmh SE 11.8 mph19.0 kmh 29.17 in987.8 mb 0.00 in0.0 mm 0.00 in0.0 mm 0.07 in1.8 mm
09:20 PM 50.5°F10.3°C 43.6°F6.4°C 77% 16.0 mph SSE25.7 kmh SSE 16.7 mph26.9 kmh 29.17 in987.8 mb 0.00 in0.0 mm 0.00 in0.0 mm 0.07 in1.8 mm
09:30 PM 50.7°F10.4°C 43.4°F6.3°C 76% 18.3 mph SSE29.5 kmh SSE 17.5 mph28.2 kmh 29.17 in987.8 mb 0.00 in0.0 mm 0.00 in0.0 mm 0.07 in1.8 mm
09:40 PM 50.7°F10.4°C 43.8°F6.6°C 77% 17.8 mph SSE28.6 kmh SSE 20.2 mph32.5 kmh 29.17 in987.8 mb 0.00 in0.0 mm 0.00 in0.0 mm 0.07 in1.8 mm
09:50 PM 50.9°F10.5°C 43.9°F6.6°C 77% 14.8 mph S23.8 kmh S 20.2 mph32.5 kmh 29.16 in987.5 mb 0.00 in0.0 mm 0.00 in0.0 mm 0.07 in1.8 mm
10:00 PM 51.3°F10.7°C 44.3°F6.8°C 77% 17.9 mph SSE28.8 kmh SSE 18.5 mph29.8 kmh 29.16 in987.5 mb 0.00 in0.0 mm 0.00 in0.0 mm 0.07 in1.8 mm
10:10 PM 51.3°F10.7°C 44.0°F6.7°C 76% 16.4 mph SSE26.4 kmh SSE 16.0 mph25.7 kmh 29.16 in987.5 mb 0.00 in0.0 mm 0.00 in0.0 mm 0.07 in1.8 mm
10:20 PM 51.1°F10.6°C 43.8°F6.6°C 76% 17.8 mph S28.6 kmh S 22.6 mph36.4 kmh 29.15 in987.1 mb 0.00 in0.0 mm 0.00 in0.0 mm 0.07 in1.8 mm
10:30 PM 50.9°F10.5°C 43.6°F6.4°C 76% 13.0 mph S20.9 kmh S 14.3 mph23.0 kmh 29.15 in987.1 mb 0.00 in0.0 mm 0.00 in0.0 mm 0.07 in1.8 mm
10:40 PM 51.1°F10.6°C 43.8°F6.6°C 76% 16.8 mph SSE27.0 kmh SSE 16.7 mph26.9 kmh 29.15 in987.1 mb 0.00 in0.0 mm 0.00 in0.0 mm 0.07 in1.8 mm
10:50 PM 51.1°F10.6°C 43.8°F6.6°C 76% 17.7 mph SE28.5 kmh SE 18.5 mph29.8 kmh 29.15 in987.1 mb 0.00 in0.0 mm 0.00 in0.0 mm 0.07 in1.8 mm
11:00 PM 50.5°F10.3°C 42.9°F6.1°C 75% 12.8 mph SSW20.6 kmh SSW 13.3 mph21.4 kmh 29.15 in987.1 mb 0.00 in0.0 mm 0.00 in0.0 mm 0.07 in1.8 mm
11:10 PM 50.4°F10.2°C 43.4°F6.3°C 77% 16.1 mph S25.9 kmh S 21.7 mph34.9 kmh 29.16 in987.5 mb 0.00 in0.0 mm 0.00 in0.0 mm 0.07 in1.8 mm
11:20 PM 50.9°F10.5°C 43.3°F6.3°C 75% 20.1 mph SSE32.3 kmh SSE 21.7 mph34.9 kmh 29.15 in987.1 mb 0.00 in0.0 mm 0.00 in0.0 mm 0.07 in1.8 mm
11:30 PM 50.9°F10.5°C 42.9°F6.1°C 74% 20.8 mph S33.5 kmh S 25.1 mph40.4 kmh 29.15 in987.1 mb 0.00 in0.0 mm 0.00 in0.0 mm 0.07 in1.8 mm
11:40 PM 50.9°F10.5°C 42.9°F6.1°C 74% 18.6 mph SSE29.9 kmh SSE 17.5 mph28.2 kmh 29.15 in987.1 mb 0.00 in0.0 mm 0.00 in0.0 mm 0.07 in1.8 mm
11:50 PM 50.7°F10.4°C 42.7°F5.9°C 74% 18.6 mph S29.9 kmh S 16.7 mph26.9 kmh 29.15 in987.1 mb 0.00 in0.0 mm 0.00 in0.0 mm 0.07 in1.8 mm